KTUL/TUL METAR and TAF weather

Enter ICAO airport designator
Station Type Date Time Source
KTUL METAR 2019/08/26 06:53 UTC NOAA

KTUL 260653Z 12003KT 10SM FEW075 23/22 A2976 RMK AO2 SLP071 T02280222 $


Station Type Date Time Source
KTUL Decoded METAR 2019/08/26 06:53 UTC NOAA

Station name not available
Aug 26, 2019 - 02:53 AM EDT / 2019.08.26 0653 UTC
Wind: from the ESE (120 degrees) at 3 MPH (3 KT):0
Visibility: 10 mile(s):0
Sky conditions: mostly clear
Temperature: 73.0 F (22.8 C)
Dew Point: 72.0 F (22.2 C)
Relative Humidity: 96%
Pressure (altimeter): 29.76 in. Hg (1007 hPa)
ob: KTUL 260653Z 12003KT 10SM FEW075 23/22 A2976 RMK AO2 SLP071 T02280222
cycle: 7

Station Type Date Time Source
KTUL TAF 2019/08/26 06:22 UTC NOAA

TAF KTUL 260520Z 2606/2706 12004KT P6SM SKC
FM261200 VRB03KT P6SM BKN025
FM261500 16012KT P6SM SCT025
FM270000 19010KT P6SM VCTS BKN050CB
TEMPO 2701/2703 3SM TSRA OVC015CB
FM270400 36014KT P6SM BKN025

Example: see airport list